Terminal Aerodrome Forecast
Issued by NWS

Home | Current Version | Previous Version | Text Only | Print | Product List | Glossary On
Versions: 1 2 3 4 5 6 7 8 9 10 11 12
000
FTUS43 KMPX 022338
TAFRWF
TAF
KRWF 022338Z 0300/0324 17020G28KT P6SM SCT120 SCT250
     FM030300 16013G20KT P6SM SCT050 BKN120
     FM030800 17012KT P6SM VCTS OVC040CB
     FM031100 18010KT P6SM OVC015 PROB30 0315/0319 5SM -TSRA
      BKN015CB OVC035
     FM031900 19007KT P6SM BKN040=

USA.gov is the U.S. government's official web portal to all federal, state and local government web resources and services.